Startpagina
METAR-TAF:

METAR-TAF

Vliegvelden :

Luchthaven Rabat-Sale

Rabat, Marokko

breedte: 34-03N, lengte: 006-46W, hoogte: 84 m

Actueel weer

Dit bericht is 33 minuten geleden gemaakt, om 17:30 UTC
Wind 5 kt uit het noordoosten, variërend tussen het noorden en het oostnoordoosten
Temperatuur 16°C
Vochtigheid 82%
Druk 1027 hPa
Zicht: 8000 m
Gebroken wolken op 2600 ft

METAR: GMME 091730Z 04005KT 000V060 8000 BKN026 16/13 Q1027 NOSIG

Tijdstip: 19:03 (18:03 UTC)

Verwachting

Dit bericht is 1 uur en het 3 minuten geleden gemaakt, om 17:00 UTC
Verwachting geldig van 09 om 18 UTC tot 10 om 24 UTC
Wind 2 kt uit variabele richting
Zicht: 8000 m
Verspreide wolken op 1300 ft
Gebroken wolken op 2000 ft
Tijdelijke
van 10 om 00 UTC tot 10 om 10 UTC
Zicht: 3000 m
Gebroken wolken op 800 ft
nevel

TAF: GMME 091700Z 0918/1024 VRB02KT 8000 SCT013 BKN020 TEMPO 1000/1010 3000 BR BKN008

Waarnemingen en weersverwachtingen van meer dan 4000 vliegvelden (METAR en TAF).

De beschikbare stations zijn de gele en rode punten op de kaart.

Ga met uw muis naar het station om de naam te zien.

Klik dan om waarnemingen en weersverwachtingen te zien.

kaart wijzigen: klik op de groene knoppen met een zwart kruis om in te zoomen, op de groene knop met een streepje om uit te zoomen of op de groene pijlen voor aangrenzende kaarten.


METAR-TAF: